sensor_id;sensor_type;location;lat;lon;timestamp;P1;durP1;ratioP1;P2;durP2;ratioP2
22468;SDS011;11401;50.792;4.352;2023-05-29T00:56:25;18.35;;;6.72;;
22468;SDS011;11401;50.792;4.352;2023-05-29T00:58:52;8.00;;;4.80;;
22468;SDS011;11401;50.792;4.352;2023-05-29T01:01:19;9.68;;;5.40;;
22468;SDS011;11401;50.792;4.352;2023-05-29T01:03:48;8.20;;;5.85;;
22468;SDS011;11401;50.792;4.352;2023-05-29T01:06:15;13.05;;;6.47;;
22468;SDS011;11401;50.792;4.352;2023-05-29T01:08:43;10.35;;;5.63;;
22468;SDS011;11401;50.792;4.352;2023-05-29T01:11:13;9.55;;;5.72;;
22468;SDS011;11401;50.792;4.352;2023-05-29T01:13:53;10.45;;;5.68;;
22468;SDS011;11401;50.792;4.352;2023-05-29T01:22:13;9.30;;;5.63;;
22468;SDS011;11401;50.792;4.352;2023-05-29T01:28:08;12.77;;;6.63;;
22468;SDS011;11401;50.792;4.352;2023-05-29T01:30:38;11.07;;;6.28;;
22468;SDS011;11401;50.792;4.352;2023-05-29T01:33:07;8.48;;;5.72;;
22468;SDS011;11401;50.792;4.352;2023-05-29T01:35:35;8.15;;;5.88;;
22468;SDS011;11401;50.792;4.352;2023-05-29T01:38:02;9.98;;;5.20;;
22468;SDS011;11401;50.792;4.352;2023-05-29T01:40:29;8.40;;;5.63;;
22468;SDS011;11401;50.792;4.352;2023-05-29T01:42:56;12.38;;;6.40;;
22468;SDS011;11401;50.792;4.352;2023-05-29T01:45:23;12.55;;;6.63;;
22468;SDS011;11401;50.792;4.352;2023-05-29T01:47:51;10.02;;;6.18;;
22468;SDS011;11401;50.792;4.352;2023-05-29T01:50:18;10.07;;;6.18;;
22468;SDS011;11401;50.792;4.352;2023-05-29T01:52:49;10.18;;;5.95;;
22468;SDS011;11401;50.792;4.352;2023-05-29T01:55:16;11.15;;;6.03;;
22468;SDS011;11401;50.792;4.352;2023-05-29T01:57:44;7.93;;;5.85;;
22468;SDS011;11401;50.792;4.352;2023-05-29T02:00:12;9.98;;;6.22;;
22468;SDS011;11401;50.792;4.352;2023-05-29T02:02:39;9.07;;;5.80;;
22468;SDS011;11401;50.792;4.352;2023-05-29T02:05:07;10.70;;;6.57;;
22468;SDS011;11401;50.792;4.352;2023-05-29T02:07:35;10.93;;;5.55;;
22468;SDS011;11401;50.792;4.352;2023-05-29T02:10:05;11.32;;;6.90;;
22468;SDS011;11401;50.792;4.352;2023-05-29T02:12:32;8.70;;;6.30;;
22468;SDS011;11401;50.792;4.352;2023-05-29T02:14:59;9.68;;;5.85;;
22468;SDS011;11401;50.792;4.352;2023-05-29T02:17:27;13.73;;;6.07;;
22468;SDS011;11401;50.792;4.352;2023-05-29T02:19:54;9.85;;;5.90;;
22468;SDS011;11401;50.792;4.352;2023-05-29T02:22:22;13.23;;;6.57;;
22468;SDS011;11401;50.792;4.352;2023-05-29T02:24:50;10.40;;;5.53;;
22468;SDS011;11401;50.792;4.352;2023-05-29T02:27:17;11.35;;;6.68;;
22468;SDS011;11401;50.792;4.352;2023-05-29T02:29:44;9.55;;;5.97;;
22468;SDS011;11401;50.792;4.352;2023-05-29T02:32:11;8.55;;;5.72;;
22468;SDS011;11401;50.792;4.352;2023-05-29T02:34:38;13.60;;;6.40;;
22468;SDS011;11401;50.792;4.352;2023-05-29T02:37:05;13.00;;;6.05;;
22468;SDS011;11401;50.792;4.352;2023-05-29T02:39:32;7.38;;;5.50;;
22468;SDS011;11401;50.792;4.352;2023-05-29T02:41:59;8.18;;;5.50;;
22468;SDS011;11401;50.792;4.352;2023-05-29T02:44:26;9.38;;;5.60;;
22468;SDS011;11401;50.792;4.352;2023-05-29T02:46:53;11.45;;;6.07;;
22468;SDS011;11401;50.792;4.352;2023-05-29T02:49:20;11.20;;;5.13;;
22468;SDS011;11401;50.792;4.352;2023-05-29T02:51:47;10.30;;;5.35;;
22468;SDS011;11401;50.792;4.352;2023-05-29T02:54:14;13.70;;;5.68;;
22468;SDS011;11401;50.792;4.352;2023-05-29T02:56:41;9.60;;;5.47;;
22468;SDS011;11401;50.792;4.352;2023-05-29T02:59:09;12.00;;;5.05;;
22468;SDS011;11401;50.792;4.352;2023-05-29T03:01:37;11.90;;;5.70;;
22468;SDS011;11401;50.792;4.352;2023-05-29T03:04:04;13.07;;;5.45;;
22468;SDS011;11401;50.792;4.352;2023-05-29T03:06:32;9.75;;;5.25;;
22468;SDS011;11401;50.792;4.352;2023-05-29T03:08:59;10.38;;;5.28;;
22468;SDS011;11401;50.792;4.352;2023-05-29T03:11:26;9.07;;;4.65;;
22468;SDS011;11401;50.792;4.352;2023-05-29T03:13:53;9.68;;;5.65;;
22468;SDS011;11401;50.792;4.352;2023-05-29T03:16:20;10.40;;;5.00;;
22468;SDS011;11401;50.792;4.352;2023-05-29T03:18:47;9.30;;;4.78;;
22468;SDS011;11401;50.792;4.352;2023-05-29T03:21:18;10.90;;;4.53;;
22468;SDS011;11401;50.792;4.352;2023-05-29T03:23:45;11.70;;;4.75;;
22468;SDS011;11401;50.792;4.352;2023-05-29T03:26:13;8.30;;;4.60;;
22468;SDS011;11401;50.792;4.352;2023-05-29T03:28:41;7.75;;;4.05;;
22468;SDS011;11401;50.792;4.352;2023-05-29T03:31:09;8.05;;;4.35;;
22468;SDS011;11401;50.792;4.352;2023-05-29T03:33:36;10.35;;;3.92;;
22468;SDS011;11401;50.792;4.352;2023-05-29T03:36:29;14.25;;;4.32;;
22468;SDS011;11401;50.792;4.352;2023-05-29T03:38:58;10.20;;;4.18;;
22468;SDS011;11401;50.792;4.352;2023-05-29T03:41:27;12.60;;;4.32;;
22468;SDS011;11401;50.792;4.352;2023-05-29T03:43:54;10.43;;;4.13;;
22468;SDS011;11401;50.792;4.352;2023-05-29T03:46:24;15.13;;;4.20;;
22468;SDS011;11401;50.792;4.352;2023-05-29T03:48:52;11.80;;;3.75;;
22468;SDS011;11401;50.792;4.352;2023-05-29T03:51:20;7.70;;;4.38;;
22468;SDS011;11401;50.792;4.352;2023-05-29T03:53:48;18.42;;;4.63;;
22468;SDS011;11401;50.792;4.352;2023-05-29T03:56:16;8.98;;;3.20;;
22468;SDS011;11401;50.792;4.352;2023-05-29T03:58:43;13.00;;;3.70;;
22468;SDS011;11401;50.792;4.352;2023-05-29T04:01:11;9.98;;;3.47;;
22468;SDS011;11401;50.792;4.352;2023-05-29T04:03:38;8.43;;;3.20;;
22468;SDS011;11401;50.792;4.352;2023-05-29T04:06:05;7.82;;;3.45;;
22468;SDS011;11401;50.792;4.352;2023-05-29T04:08:33;16.55;;;4.00;;
22468;SDS011;11401;50.792;4.352;2023-05-29T04:11:01;11.63;;;3.70;;
22468;SDS011;11401;50.792;4.352;2023-05-29T04:13:30;10.02;;;3.75;;
22468;SDS011;11401;50.792;4.352;2023-05-29T04:15:57;10.60;;;3.55;;
22468;SDS011;11401;50.792;4.352;2023-05-29T04:18:23;11.15;;;3.85;;
22468;SDS011;11401;50.792;4.352;2023-05-29T04:20:52;11.82;;;3.60;;
22468;SDS011;11401;50.792;4.352;2023-05-29T04:23:20;8.63;;;4.20;;
22468;SDS011;11401;50.792;4.352;2023-05-29T04:25:48;10.30;;;3.60;;
22468;SDS011;11401;50.792;4.352;2023-05-29T04:28:22;12.10;;;3.60;;
22468;SDS011;11401;50.792;4.352;2023-05-29T04:30:50;14.18;;;3.75;;
22468;SDS011;11401;50.792;4.352;2023-05-29T04:33:19;12.20;;;3.72;;
22468;SDS011;11401;50.792;4.352;2023-05-29T04:35:50;11.93;;;3.58;;
22468;SDS011;11401;50.792;4.352;2023-05-29T04:38:17;10.98;;;3.22;;
22468;SDS011;11401;50.792;4.352;2023-05-29T04:40:45;12.00;;;3.90;;
22468;SDS011;11401;50.792;4.352;2023-05-29T04:43:17;8.38;;;3.03;;
22468;SDS011;11401;50.792;4.352;2023-05-29T04:45:56;10.10;;;2.90;;
22468;SDS011;11401;50.792;4.352;2023-05-29T04:48:26;10.80;;;3.42;;
22468;SDS011;11401;50.792;4.352;2023-05-29T04:50:53;14.13;;;3.63;;
22468;SDS011;11401;50.792;4.352;2023-05-29T04:53:21;9.48;;;3.40;;
22468;SDS011;11401;50.792;4.352;2023-05-29T04:55:50;8.13;;;3.13;;
22468;SDS011;11401;50.792;4.352;2023-05-29T04:58:17;12.57;;;4.40;;
22468;SDS011;11401;50.792;4.352;2023-05-29T05:00:44;10.75;;;3.38;;
22468;SDS011;11401;50.792;4.352;2023-05-29T05:03:12;9.40;;;3.47;;
22468;SDS011;11401;50.792;4.352;2023-05-29T05:05:43;17.23;;;3.08;;
22468;SDS011;11401;50.792;4.352;2023-05-29T05:08:12;9.30;;;2.92;;
22468;SDS011;11401;50.792;4.352;2023-05-29T05:10:39;11.90;;;3.30;;
22468;SDS011;11401;50.792;4.352;2023-05-29T05:13:06;10.60;;;3.10;;
22468;SDS011;11401;50.792;4.352;2023-05-29T05:15:35;9.82;;;2.47;;
22468;SDS011;11401;50.792;4.352;2023-05-29T05:18:03;10.27;;;3.45;;
22468;SDS011;11401;50.792;4.352;2023-05-29T05:20:32;10.80;;;3.58;;
22468;SDS011;11401;50.792;4.352;2023-05-29T05:22:59;9.90;;;3.35;;
22468;SDS011;11401;50.792;4.352;2023-05-29T05:25:27;10.38;;;2.72;;
22468;SDS011;11401;50.792;4.352;2023-05-29T05:27:54;14.43;;;4.22;;
22468;SDS011;11401;50.792;4.352;2023-05-29T05:30:23;9.27;;;3.35;;
22468;SDS011;11401;50.792;4.352;2023-05-29T05:32:50;13.93;;;4.10;;
22468;SDS011;11401;50.792;4.352;2023-05-29T05:35:17;7.93;;;2.83;;
22468;SDS011;11401;50.792;4.352;2023-05-29T05:37:46;8.45;;;3.22;;
22468;SDS011;11401;50.792;4.352;2023-05-29T05:40:13;10.73;;;3.50;;
22468;SDS011;11401;50.792;4.352;2023-05-29T05:42:56;17.10;;;3.45;;
22468;SDS011;11401;50.792;4.352;2023-05-29T05:45:41;11.65;;;3.33;;
22468;SDS011;11401;50.792;4.352;2023-05-29T05:48:09;8.80;;;2.30;;
22468;SDS011;11401;50.792;4.352;2023-05-29T05:50:36;15.20;;;3.50;;
22468;SDS011;11401;50.792;4.352;2023-05-29T05:53:03;8.82;;;3.00;;
22468;SDS011;11401;50.792;4.352;2023-05-29T05:55:31;12.30;;;3.38;;
22468;SDS011;11401;50.792;4.352;2023-05-29T05:57:58;9.02;;;3.63;;
22468;SDS011;11401;50.792;4.352;2023-05-29T06:00:25;10.55;;;3.05;;
22468;SDS011;11401;50.792;4.352;2023-05-29T06:02:55;12.93;;;3.28;;
22468;SDS011;11401;50.792;4.352;2023-05-29T06:05:45;12.23;;;3.53;;
22468;SDS011;11401;50.792;4.352;2023-05-29T06:08:12;13.45;;;4.95;;
22468;SDS011;11401;50.792;4.352;2023-05-29T06:10:39;12.48;;;3.60;;
22468;SDS011;11401;50.792;4.352;2023-05-29T06:13:07;17.45;;;3.28;;
22468;SDS011;11401;50.792;4.352;2023-05-29T06:15:43;15.07;;;3.35;;
22468;SDS011;11401;50.792;4.352;2023-05-29T06:18:11;13.40;;;3.50;;
22468;SDS011;11401;50.792;4.352;2023-05-29T06:20:39;10.68;;;3.50;;
22468;SDS011;11401;50.792;4.352;2023-05-29T06:23:07;9.00;;;3.00;;
22468;SDS011;11401;50.792;4.352;2023-05-29T06:25:36;10.82;;;3.03;;
22468;SDS011;11401;50.792;4.352;2023-05-29T06:28:04;14.18;;;3.50;;
22468;SDS011;11401;50.792;4.352;2023-05-29T06:30:55;8.63;;;3.17;;
22468;SDS011;11401;50.792;4.352;2023-05-29T06:33:23;12.45;;;3.25;;
22468;SDS011;11401;50.792;4.352;2023-05-29T06:35:51;10.80;;;3.05;;
22468;SDS011;11401;50.792;4.352;2023-05-29T06:38:18;8.60;;;3.17;;
22468;SDS011;11401;50.792;4.352;2023-05-29T06:40:45;12.95;;;3.72;;
22468;SDS011;11401;50.792;4.352;2023-05-29T06:43:12;11.18;;;3.10;;
22468;SDS011;11401;50.792;4.352;2023-05-29T06:45:45;8.15;;;2.88;;
22468;SDS011;11401;50.792;4.352;2023-05-29T06:48:12;9.68;;;2.88;;
22468;SDS011;11401;50.792;4.352;2023-05-29T06:50:40;9.15;;;3.28;;
22468;SDS011;11401;50.792;4.352;2023-05-29T06:53:37;7.65;;;3.00;;
22468;SDS011;11401;50.792;4.352;2023-05-29T06:56:06;9.40;;;2.70;;
22468;SDS011;11401;50.792;4.352;2023-05-29T06:58:33;14.25;;;3.42;;
22468;SDS011;11401;50.792;4.352;2023-05-29T07:01:01;8.60;;;2.75;;
22468;SDS011;11401;50.792;4.352;2023-05-29T07:03:34;10.07;;;3.10;;
22468;SDS011;11401;50.792;4.352;2023-05-29T07:06:04;7.95;;;3.13;;
22468;SDS011;11401;50.792;4.352;2023-05-29T07:08:32;12.40;;;3.00;;
22468;SDS011;11401;50.792;4.352;2023-05-29T07:11:00;15.02;;;3.60;;
22468;SDS011;11401;50.792;4.352;2023-05-29T07:13:28;7.85;;;2.70;;
22468;SDS011;11401;50.792;4.352;2023-05-29T07:15:55;5.90;;;2.63;;
22468;SDS011;11401;50.792;4.352;2023-05-29T07:18:31;3.75;;;2.35;;
22468;SDS011;11401;50.792;4.352;2023-05-29T07:20:59;5.80;;;2.25;;
22468;SDS011;11401;50.792;4.352;2023-05-29T07:23:29;6.50;;;2.97;;
22468;SDS011;11401;50.792;4.352;2023-05-29T07:25:57;10.77;;;3.05;;
22468;SDS011;11401;50.792;4.352;2023-05-29T07:28:27;6.47;;;2.78;;
22468;SDS011;11401;50.792;4.352;2023-05-29T07:30:54;12.30;;;3.35;;
22468;SDS011;11401;50.792;4.352;2023-05-29T07:33:23;13.85;;;3.20;;
22468;SDS011;11401;50.792;4.352;2023-05-29T07:35:51;8.40;;;3.00;;
22468;SDS011;11401;50.792;4.352;2023-05-29T07:38:18;6.88;;;3.17;;
22468;SDS011;11401;50.792;4.352;2023-05-29T07:40:47;14.63;;;3.72;;
22468;SDS011;11401;50.792;4.352;2023-05-29T07:43:28;12.98;;;3.30;;
22468;SDS011;11401;50.792;4.352;2023-05-29T07:45:59;12.48;;;3.15;;
22468;SDS011;11401;50.792;4.352;2023-05-29T07:48:26;11.02;;;2.88;;
22468;SDS011;11401;50.792;4.352;2023-05-29T07:50:54;9.48;;;3.30;;
22468;SDS011;11401;50.792;4.352;2023-05-29T07:53:23;10.75;;;3.70;;
22468;SDS011;11401;50.792;4.352;2023-05-29T07:55:50;11.75;;;2.80;;
22468;SDS011;11401;50.792;4.352;2023-05-29T07:58:19;7.03;;;2.83;;
22468;SDS011;11401;50.792;4.352;2023-05-29T08:00:47;14.00;;;2.90;;
22468;SDS011;11401;50.792;4.352;2023-05-29T08:03:15;8.65;;;2.97;;
22468;SDS011;11401;50.792;4.352;2023-05-29T08:06:01;11.73;;;3.33;;
22468;SDS011;11401;50.792;4.352;2023-05-29T08:08:28;8.43;;;2.72;;
22468;SDS011;11401;50.792;4.352;2023-05-29T08:10:56;14.65;;;3.10;;
22468;SDS011;11401;50.792;4.352;2023-05-29T08:13:24;7.85;;;2.92;;
22468;SDS011;11401;50.792;4.352;2023-05-29T08:15:52;11.50;;;3.08;;
22468;SDS011;11401;50.792;4.352;2023-05-29T08:18:20;15.73;;;3.53;;
22468;SDS011;11401;50.792;4.352;2023-05-29T08:20:47;11.95;;;3.38;;
22468;SDS011;11401;50.792;4.352;2023-05-29T08:23:14;5.78;;;2.58;;
22468;SDS011;11401;50.792;4.352;2023-05-29T08:25:42;7.90;;;3.10;;
22468;SDS011;11401;50.792;4.352;2023-05-29T08:28:09;13.55;;;3.67;;
22468;SDS011;11401;50.792;4.352;2023-05-29T08:30:37;10.18;;;2.97;;
22468;SDS011;11401;50.792;4.352;2023-05-29T08:33:04;11.40;;;3.40;;
22468;SDS011;11401;50.792;4.352;2023-05-29T08:35:31;8.68;;;2.70;;
22468;SDS011;11401;50.792;4.352;2023-05-29T08:37:58;9.40;;;3.58;;
22468;SDS011;11401;50.792;4.352;2023-05-29T08:40:25;13.32;;;3.00;;
22468;SDS011;11401;50.792;4.352;2023-05-29T08:45:32;9.18;;;3.15;;
22468;SDS011;11401;50.792;4.352;2023-05-29T08:48:01;15.30;;;3.40;;
22468;SDS011;11401;50.792;4.352;2023-05-29T08:50:28;27.75;;;12.43;;
22468;SDS011;11401;50.792;4.352;2023-05-29T08:52:56;8.80;;;4.85;;
22468;SDS011;11401;50.792;4.352;2023-05-29T08:55:23;10.38;;;2.95;;
22468;SDS011;11401;50.792;4.352;2023-05-29T08:57:50;8.63;;;3.63;;
22468;SDS011;11401;50.792;4.352;2023-05-29T09:00:17;8.95;;;3.20;;
22468;SDS011;11401;50.792;4.352;2023-05-29T09:02:46;7.07;;;3.17;;
22468;SDS011;11401;50.792;4.352;2023-05-29T09:05:13;8.35;;;3.03;;
22468;SDS011;11401;50.792;4.352;2023-05-29T09:07:41;12.02;;;3.50;;
22468;SDS011;11401;50.792;4.352;2023-05-29T09:10:08;16.52;;;3.50;;
22468;SDS011;11401;50.792;4.352;2023-05-29T09:12:36;5.53;;;2.55;;
22468;SDS011;11401;50.792;4.352;2023-05-29T09:15:05;11.90;;;3.40;;
22468;SDS011;11401;50.792;4.352;2023-05-29T09:17:55;10.63;;;3.20;;
22468;SDS011;11401;50.792;4.352;2023-05-29T09:20:24;10.85;;;2.80;;
22468;SDS011;11401;50.792;4.352;2023-05-29T09:22:58;6.13;;;2.90;;
22468;SDS011;11401;50.792;4.352;2023-05-29T09:25:27;17.60;;;3.50;;
22468;SDS011;11401;50.792;4.352;2023-05-29T09:28:01;9.43;;;2.95;;
22468;SDS011;11401;50.792;4.352;2023-05-29T09:30:34;9.80;;;3.10;;
22468;SDS011;11401;50.792;4.352;2023-05-29T09:33:08;10.07;;;2.88;;
22468;SDS011;11401;50.792;4.352;2023-05-29T09:35:37;12.52;;;3.35;;
22468;SDS011;11401;50.792;4.352;2023-05-29T09:38:15;10.63;;;3.40;;
22468;SDS011;11401;50.792;4.352;2023-05-29T09:41:03;6.35;;;2.78;;
22468;SDS011;11401;50.792;4.352;2023-05-29T09:43:32;10.23;;;2.92;;
22468;SDS011;11401;50.792;4.352;2023-05-29T09:46:00;10.10;;;4.03;;
22468;SDS011;11401;50.792;4.352;2023-05-29T09:48:29;5.68;;;2.80;;
22468;SDS011;11401;50.792;4.352;2023-05-29T09:50:57;7.95;;;3.13;;
22468;SDS011;11401;50.792;4.352;2023-05-29T09:53:25;11.68;;;3.97;;
22468;SDS011;11401;50.792;4.352;2023-05-29T09:55:55;13.77;;;3.15;;
22468;SDS011;11401;50.792;4.352;2023-05-29T09:58:26;9.20;;;2.65;;
22468;SDS011;11401;50.792;4.352;2023-05-29T10:00:54;9.15;;;3.20;;
22468;SDS011;11401;50.792;4.352;2023-05-29T10:03:24;8.65;;;2.92;;
22468;SDS011;11401;50.792;4.352;2023-05-29T10:05:53;9.38;;;3.33;;
22468;SDS011;11401;50.792;4.352;2023-05-29T10:08:23;9.05;;;2.97;;
22468;SDS011;11401;50.792;4.352;2023-05-29T10:10:54;13.23;;;3.17;;
22468;SDS011;11401;50.792;4.352;2023-05-29T10:13:29;10.50;;;3.17;;
22468;SDS011;11401;50.792;4.352;2023-05-29T10:16:01;13.15;;;3.42;;
22468;SDS011;11401;50.792;4.352;2023-05-29T10:18:39;9.32;;;2.70;;
22468;SDS011;11401;50.792;4.352;2023-05-29T10:21:10;12.20;;;3.03;;
22468;SDS011;11401;50.792;4.352;2023-05-29T10:23:39;9.88;;;2.95;;
22468;SDS011;11401;50.792;4.352;2023-05-29T10:26:14;7.93;;;3.53;;
22468;SDS011;11401;50.792;4.352;2023-05-29T10:32:07;10.48;;;2.88;;
22468;SDS011;11401;50.792;4.352;2023-05-29T10:37:29;9.25;;;2.92;;
22468;SDS011;11401;50.792;4.352;2023-05-29T10:40:05;11.90;;;2.40;;
22468;SDS011;11401;50.792;4.352;2023-05-29T10:47:54;8.43;;;3.15;;
22468;SDS011;11401;50.792;4.352;2023-05-29T10:50:37;5.30;;;2.47;;
22468;SDS011;11401;50.792;4.352;2023-05-29T10:53:23;5.45;;;2.50;;
22468;SDS011;11401;50.792;4.352;2023-05-29T10:55:52;6.70;;;2.83;;
22468;SDS011;11401;50.792;4.352;2023-05-29T10:58:22;10.25;;;3.10;;
22468;SDS011;11401;50.792;4.352;2023-05-29T11:00:51;6.40;;;2.42;;
22468;SDS011;11401;50.792;4.352;2023-05-29T11:03:23;8.00;;;2.53;;
22468;SDS011;11401;50.792;4.352;2023-05-29T11:06:04;6.25;;;2.38;;
22468;SDS011;11401;50.792;4.352;2023-05-29T11:08:46;6.18;;;2.58;;
22468;SDS011;11401;50.792;4.352;2023-05-29T11:11:29;6.55;;;2.65;;
22468;SDS011;11401;50.792;4.352;2023-05-29T11:14:06;3.08;;;2.00;;
22468;SDS011;11401;50.792;4.352;2023-05-29T11:19:05;7.53;;;2.80;;
22468;SDS011;11401;50.792;4.352;2023-05-29T11:24:26;12.68;;;3.33;;
22468;SDS011;11401;50.792;4.352;2023-05-29T11:26:55;7.68;;;3.10;;
22468;SDS011;11401;50.792;4.352;2023-05-29T11:29:23;10.02;;;3.13;;
22468;SDS011;11401;50.792;4.352;2023-05-29T11:31:57;7.60;;;2.88;;
22468;SDS011;11401;50.792;4.352;2023-05-29T11:34:29;8.70;;;3.30;;
22468;SDS011;11401;50.792;4.352;2023-05-29T11:36:58;8.35;;;3.10;;
22468;SDS011;11401;50.792;4.352;2023-05-29T11:39:27;4.00;;;2.53;;
22468;SDS011;11401;50.792;4.352;2023-05-29T11:41:55;8.63;;;2.22;;
22468;SDS011;11401;50.792;4.352;2023-05-29T11:44:25;9.00;;;3.22;;
22468;SDS011;11401;50.792;4.352;2023-05-29T11:47:02;11.70;;;3.13;;
22468;SDS011;11401;50.792;4.352;2023-05-29T11:49:32;8.25;;;2.67;;
22468;SDS011;11401;50.792;4.352;2023-05-29T11:52:08;9.45;;;3.08;;
22468;SDS011;11401;50.792;4.352;2023-05-29T11:54:43;10.68;;;2.97;;
22468;SDS011;11401;50.792;4.352;2023-05-29T11:57:21;7.78;;;2.45;;
22468;SDS011;11401;50.792;4.352;2023-05-29T11:59:49;8.68;;;3.00;;
22468;SDS011;11401;50.792;4.352;2023-05-29T12:02:18;11.20;;;2.67;;
22468;SDS011;11401;50.792;4.352;2023-05-29T12:05:02;4.60;;;1.85;;
22468;SDS011;11401;50.792;4.352;2023-05-29T12:07:31;3.17;;;1.98;;
22468;SDS011;11401;50.792;4.352;2023-05-29T12:10:20;7.45;;;2.20;;
22468;SDS011;11401;50.792;4.352;2023-05-29T12:12:51;7.65;;;2.72;;
22468;SDS011;11401;50.792;4.352;2023-05-29T12:15:30;11.55;;;2.63;;
22468;SDS011;11401;50.792;4.352;2023-05-29T12:17:57;9.70;;;2.95;;
22468;SDS011;11401;50.792;4.352;2023-05-29T12:20:27;8.02;;;2.42;;
22468;SDS011;11401;50.792;4.352;2023-05-29T12:22:58;8.98;;;2.42;;
22468;SDS011;11401;50.792;4.352;2023-05-29T12:25:29;6.15;;;2.38;;
22468;SDS011;11401;50.792;4.352;2023-05-29T12:27:56;6.60;;;2.63;;
22468;SDS011;11401;50.792;4.352;2023-05-29T12:30:24;5.18;;;2.78;;
22468;SDS011;11401;50.792;4.352;2023-05-29T12:32:55;5.32;;;2.22;;
22468;SDS011;11401;50.792;4.352;2023-05-29T12:35:23;4.47;;;2.22;;
22468;SDS011;11401;50.792;4.352;2023-05-29T12:38:06;8.93;;;2.25;;
22468;SDS011;11401;50.792;4.352;2023-05-29T12:40:36;4.45;;;2.00;;
22468;SDS011;11401;50.792;4.352;2023-05-29T12:43:08;7.75;;;2.80;;
22468;SDS011;11401;50.792;4.352;2023-05-29T12:45:38;5.05;;;1.75;;
22468;SDS011;11401;50.792;4.352;2023-05-29T12:48:05;5.50;;;2.13;;
22468;SDS011;11401;50.792;4.352;2023-05-29T12:50:34;5.80;;;2.47;;
22468;SDS011;11401;50.792;4.352;2023-05-29T12:53:04;5.22;;;1.98;;
22468;SDS011;11401;50.792;4.352;2023-05-29T12:55:39;6.10;;;2.50;;
22468;SDS011;11401;50.792;4.352;2023-05-29T12:58:09;5.00;;;2.38;;
22468;SDS011;11401;50.792;4.352;2023-05-29T13:00:40;5.85;;;2.20;;
22468;SDS011;11401;50.792;4.352;2023-05-29T13:03:09;4.25;;;2.20;;
22468;SDS011;11401;50.792;4.352;2023-05-29T13:05:39;4.18;;;1.83;;
22468;SDS011;11401;50.792;4.352;2023-05-29T13:08:07;6.70;;;2.13;;
22468;SDS011;11401;50.792;4.352;2023-05-29T13:10:34;7.40;;;2.10;;
22468;SDS011;11401;50.792;4.352;2023-05-29T13:13:02;3.05;;;1.60;;
22468;SDS011;11401;50.792;4.352;2023-05-29T13:15:30;6.05;;;2.10;;
22468;SDS011;11401;50.792;4.352;2023-05-29T13:17:59;4.32;;;1.73;;
22468;SDS011;11401;50.792;4.352;2023-05-29T13:20:27;3.35;;;2.10;;
22468;SDS011;11401;50.792;4.352;2023-05-29T13:22:55;9.20;;;2.53;;
22468;SDS011;11401;50.792;4.352;2023-05-29T13:25:22;3.92;;;2.00;;
22468;SDS011;11401;50.792;4.352;2023-05-29T13:27:50;4.43;;;2.08;;
22468;SDS011;11401;50.792;4.352;2023-05-29T13:30:18;4.07;;;2.08;;
22468;SDS011;11401;50.792;4.352;2023-05-29T13:32:45;3.13;;;2.25;;
22468;SDS011;11401;50.792;4.352;2023-05-29T13:35:12;5.10;;;2.08;;
22468;SDS011;11401;50.792;4.352;2023-05-29T13:37:39;8.10;;;2.35;;
22468;SDS011;11401;50.792;4.352;2023-05-29T13:40:07;5.90;;;2.22;;
22468;SDS011;11401;50.792;4.352;2023-05-29T13:42:38;7.45;;;2.40;;
22468;SDS011;11401;50.792;4.352;2023-05-29T13:45:06;7.00;;;2.20;;
22468;SDS011;11401;50.792;4.352;2023-05-29T13:47:34;2.38;;;1.80;;
22468;SDS011;11401;50.792;4.352;2023-05-29T13:50:02;5.30;;;1.95;;
22468;SDS011;11401;50.792;4.352;2023-05-29T13:52:29;4.88;;;2.05;;
22468;SDS011;11401;50.792;4.352;2023-05-29T13:54:56;5.40;;;2.40;;
22468;SDS011;11401;50.792;4.352;2023-05-29T13:57:32;5.03;;;2.38;;
22468;SDS011;11401;50.792;4.352;2023-05-29T13:59:59;4.85;;;1.90;;
22468;SDS011;11401;50.792;4.352;2023-05-29T14:02:30;4.40;;;1.73;;
22468;SDS011;11401;50.792;4.352;2023-05-29T14:04:57;3.85;;;2.30;;
22468;SDS011;11401;50.792;4.352;2023-05-29T14:07:24;7.88;;;2.28;;
22468;SDS011;11401;50.792;4.352;2023-05-29T14:09:52;10.43;;;3.40;;
22468;SDS011;11401;50.792;4.352;2023-05-29T14:12:19;5.68;;;2.42;;
22468;SDS011;11401;50.792;4.352;2023-05-29T14:14:46;4.03;;;2.13;;
22468;SDS011;11401;50.792;4.352;2023-05-29T14:17:13;10.68;;;2.85;;
22468;SDS011;11401;50.792;4.352;2023-05-29T14:19:41;6.80;;;2.17;;
22468;SDS011;11401;50.792;4.352;2023-05-29T14:22:08;7.10;;;2.15;;
22468;SDS011;11401;50.792;4.352;2023-05-29T14:24:37;3.58;;;1.85;;
22468;SDS011;11401;50.792;4.352;2023-05-29T14:27:04;2.90;;;2.00;;
22468;SDS011;11401;50.792;4.352;2023-05-29T14:29:32;6.63;;;2.72;;
22468;SDS011;11401;50.792;4.352;2023-05-29T14:31:59;3.15;;;2.10;;
22468;SDS011;11401;50.792;4.352;2023-05-29T14:34:26;6.43;;;2.53;;
22468;SDS011;11401;50.792;4.352;2023-05-29T14:36:53;6.15;;;2.38;;
22468;SDS011;11401;50.792;4.352;2023-05-29T14:39:20;7.07;;;2.55;;
22468;SDS011;11401;50.792;4.352;2023-05-29T14:41:47;8.45;;;2.63;;
22468;SDS011;11401;50.792;4.352;2023-05-29T14:44:14;5.97;;;2.47;;
22468;SDS011;11401;50.792;4.352;2023-05-29T14:46:42;8.80;;;2.45;;
22468;SDS011;11401;50.792;4.352;2023-05-29T14:49:09;6.03;;;2.80;;
22468;SDS011;11401;50.792;4.352;2023-05-29T14:51:36;8.68;;;2.10;;
22468;SDS011;11401;50.792;4.352;2023-05-29T14:54:05;4.03;;;1.90;;
22468;SDS011;11401;50.792;4.352;2023-05-29T14:56:32;5.45;;;2.30;;
22468;SDS011;11401;50.792;4.352;2023-05-29T14:58:59;5.95;;;2.95;;
22468;SDS011;11401;50.792;4.352;2023-05-29T15:01:26;5.05;;;2.30;;
22468;SDS011;11401;50.792;4.352;2023-05-29T15:03:53;5.32;;;2.10;;
22468;SDS011;11401;50.792;4.352;2023-05-29T15:06:20;11.43;;;3.67;;
22468;SDS011;11401;50.792;4.352;2023-05-29T15:08:47;4.00;;;2.13;;
22468;SDS011;11401;50.792;4.352;2023-05-29T15:11:17;8.93;;;2.55;;
22468;SDS011;11401;50.792;4.352;2023-05-29T15:13:46;6.32;;;2.50;;
22468;SDS011;11401;50.792;4.352;2023-05-29T15:16:13;5.50;;;2.65;;
22468;SDS011;11401;50.792;4.352;2023-05-29T15:18:40;3.88;;;1.85;;
22468;SDS011;11401;50.792;4.352;2023-05-29T15:21:07;4.63;;;2.13;;
22468;SDS011;11401;50.792;4.352;2023-05-29T15:23:34;4.25;;;2.20;;
22468;SDS011;11401;50.792;4.352;2023-05-29T15:26:02;25.42;;;3.50;;
22468;SDS011;11401;50.792;4.352;2023-05-29T15:28:29;14.63;;;2.78;;
22468;SDS011;11401;50.792;4.352;2023-05-29T15:30:57;11.95;;;3.63;;
22468;SDS011;11401;50.792;4.352;2023-05-29T15:33:24;15.32;;;2.97;;
22468;SDS011;11401;50.792;4.352;2023-05-29T15:35:56;12.15;;;3.00;;
22468;SDS011;11401;50.792;4.352;2023-05-29T15:38:23;5.63;;;2.60;;
22468;SDS011;11401;50.792;4.352;2023-05-29T15:40:50;13.68;;;3.20;;
22468;SDS011;11401;50.792;4.352;2023-05-29T15:43:17;8.18;;;2.50;;
22468;SDS011;11401;50.792;4.352;2023-05-29T15:45:44;10.27;;;2.78;;
22468;SDS011;11401;50.792;4.352;2023-05-29T15:48:13;5.95;;;3.17;;
22468;SDS011;11401;50.792;4.352;2023-05-29T15:50:42;8.85;;;2.95;;
22468;SDS011;11401;50.792;4.352;2023-05-29T15:53:09;10.27;;;3.15;;
22468;SDS011;11401;50.792;4.352;2023-05-29T15:55:36;12.98;;;3.15;;
22468;SDS011;11401;50.792;4.352;2023-05-29T15:58:03;6.07;;;2.85;;
22468;SDS011;11401;50.792;4.352;2023-05-29T16:00:32;8.10;;;3.10;;
22468;SDS011;11401;50.792;4.352;2023-05-29T16:03:00;6.25;;;2.60;;
22468;SDS011;11401;50.792;4.352;2023-05-29T16:05:28;10.23;;;3.05;;
22468;SDS011;11401;50.792;4.352;2023-05-29T16:07:55;11.40;;;3.22;;
22468;SDS011;11401;50.792;4.352;2023-05-29T16:10:23;8.38;;;3.05;;
22468;SDS011;11401;50.792;4.352;2023-05-29T16:12:51;9.15;;;3.50;;
22468;SDS011;11401;50.792;4.352;2023-05-29T16:15:20;7.53;;;2.90;;
22468;SDS011;11401;50.792;4.352;2023-05-29T16:17:47;9.40;;;2.95;;
22468;SDS011;11401;50.792;4.352;2023-05-29T16:20:15;8.68;;;2.67;;